Time;durP1;ratioP1;P1;durP2;ratioP2;P2;SDS_P1;SDS_P2;PMS_P1;PMS_P2;Temp;Humidity;BMP_temperature;BMP_pressure;BME280_temperature;BME280_humidity;BME280_pressure;Samples;Min_cycle;Max_cycle;Signal;HPM_P1;HPM_P2
2023/06/16 00:01:35;;;;;;;6.60;2.78;;;;;;;21.68;44.61;99215.94;4360636;32;33586;-60
2023/06/16 00:04:04;;;;;;;4.22;2.03;;;;;;;21.72;44.52;99214.50;4358852;32;34116;-61
2023/06/16 00:06:32;;;;;;;5.28;2.83;;;;;;;21.73;44.43;99208.84;4357209;32;34598;-60
2023/06/16 00:09:00;;;;;;;4.00;2.40;;;;;;;21.73;44.68;99214.28;4358306;32;32621;-60
2023/06/16 00:11:29;;;;;;;5.10;2.65;;;;;;;21.83;44.44;99209.34;4361578;32;34517;-61
2023/06/16 00:13:57;;;;;;;6.30;2.95;;;;;;;21.95;44.48;99216.94;4359400;32;34040;-61
2023/06/16 00:16:26;;;;;;;4.12;2.08;;;;;;;22.00;44.43;99218.03;4356575;32;34076;-61
2023/06/16 00:18:57;;;;;;;4.30;2.28;;;;;;;21.98;44.30;99214.66;4355494;32;32956;-61
2023/06/16 00:21:27;;;;;;;4.37;2.55;;;;;;;21.99;44.38;99215.47;4359843;32;34144;-61
2023/06/16 00:23:56;;;;;;;4.62;2.45;;;;;;;21.94;44.73;99213.38;4360518;32;33775;-61
2023/06/16 00:26:23;;;;;;;3.75;2.22;;;;;;;22.06;44.29;99211.78;4360949;32;33822;-61
2023/06/16 00:28:51;;;;;;;7.95;2.95;;;;;;;21.98;44.36;99198.28;4360430;32;33313;-61
2023/06/16 00:31:18;;;;;;;5.15;2.90;;;;;;;22.05;44.25;99206.50;4359600;32;32671;-61
2023/06/16 00:33:46;;;;;;;4.43;2.22;;;;;;;22.06;44.13;99205.47;4357844;32;34151;-61
2023/06/16 00:36:15;;;;;;;4.00;2.50;;;;;;;22.14;44.14;99204.47;4357727;32;34269;-61
2023/06/16 00:38:43;;;;;;;5.15;2.42;;;;;;;22.16;44.30;99205.97;4358046;32;34636;-61
2023/06/16 00:41:11;;;;;;;4.57;2.78;;;;;;;22.20;44.24;99206.41;4361036;32;33791;-61
2023/06/16 00:43:38;;;;;;;5.07;2.50;;;;;;;22.24;44.80;99202.22;4358940;32;34879;-61
2023/06/16 00:46:08;;;;;;;5.85;3.22;;;;;;;22.22;44.86;99197.00;4360086;32;33609;-61
2023/06/16 00:48:36;;;;;;;2.80;1.83;;;;;;;22.26;44.93;99191.97;4343757;32;33028;-61
2023/06/16 00:51:03;;;;;;;6.35;3.20;;;;;;;22.24;45.40;99191.31;4346710;32;33810;-61
2023/06/16 00:53:32;;;;;;;7.07;3.28;;;;;;;22.29;45.21;99189.69;4359598;32;33754;-61
2023/06/16 00:56:00;;;;;;;5.90;2.42;;;;;;;22.29;44.84;99192.41;4346846;32;34735;-61
2023/06/16 00:58:29;;;;;;;6.85;3.17;;;;;;;22.33;44.81;99192.84;4357659;32;33167;-60
2023/06/16 01:00:57;;;;;;;5.95;3.40;;;;;;;22.29;45.01;99186.94;4345374;32;33905;-61
2023/06/16 01:03:26;;;;;;;7.80;3.17;;;;;;;22.27;45.06;99185.47;4359475;32;33770;-61
2023/06/16 01:05:56;;;;;;;7.15;3.65;;;;;;;22.31;45.25;99184.00;4360826;32;33496;-61
2023/06/16 01:09:16;;;;;;;5.47;2.85;;;;;;;22.27;45.40;99188.19;4358541;32;33306;-61
2023/06/16 01:11:52;;;;;;;3.08;2.12;;;;;;;22.26;45.21;99187.34;4269978;33;33601;-61
2023/06/16 01:14:32;;;;;;;6.10;3.35;;;;;;;22.22;45.27;99188.81;4257565;33;34032;-61
2023/06/16 01:17:01;;;;;;;5.55;2.65;;;;;;;22.18;45.59;99179.34;4267743;33;33563;-61
2023/06/16 01:19:37;;;;;;;3.53;2.10;;;;;;;22.19;45.67;99183.78;4270356;33;33411;-61
2023/06/16 01:22:14;;;;;;;5.10;2.55;;;;;;;22.20;45.73;99180.00;4258335;33;33468;-61
2023/06/16 01:24:43;;;;;;;6.15;2.95;;;;;;;22.13;46.09;99173.66;4267975;33;34196;-61
2023/06/16 01:27:13;;;;;;;6.25;2.90;;;;;;;22.18;45.91;99173.06;4258567;33;34888;-61
2023/06/16 01:29:41;;;;;;;5.05;2.87;;;;;;;22.17;45.79;99168.66;4270900;33;33505;-61
2023/06/16 01:32:10;;;;;;;8.57;2.30;;;;;;;22.18;45.60;99165.72;4268353;33;33926;-61
2023/06/16 01:34:38;;;;;;;4.80;2.47;;;;;;;22.18;45.57;99176.63;4266692;33;32661;-61
2023/06/16 01:37:06;;;;;;;4.80;2.72;;;;;;;22.19;45.93;99170.13;4267669;33;33515;-61
2023/06/16 01:39:36;;;;;;;4.35;2.42;;;;;;;22.10;45.95;99161.25;4266939;33;32839;-61
2023/06/16 01:42:03;;;;;;;7.15;2.87;;;;;;;22.21;45.43;99161.75;4269761;33;34867;-61
2023/06/16 01:44:32;;;;;;;6.97;2.47;;;;;;;22.23;45.58;99159.66;4258428;33;34633;-61
2023/06/16 01:47:00;;;;;;;6.15;3.12;;;;;;;22.29;45.67;99161.56;4276371;33;34268;-61
2023/06/16 01:49:28;;;;;;;5.97;3.40;;;;;;;22.23;46.02;99159.66;4343702;32;33295;-61
2023/06/16 01:51:56;;;;;;;6.00;2.70;;;;;;;22.27;45.96;99164.50;4344907;32;33747;-61
2023/06/16 01:54:24;;;;;;;6.57;3.08;;;;;;;22.10;46.71;99163.16;4359714;32;34909;-61
2023/06/16 01:56:51;;;;;;;5.22;2.62;;;;;;;22.23;46.39;99159.66;4354426;32;33503;-61
2023/06/16 01:59:19;;;;;;;10.07;4.15;;;;;;;22.23;46.53;99163.22;4358856;32;33360;-61
2023/06/16 02:01:52;;;;;;;4.68;2.97;;;;;;;22.23;46.29;99163.22;4358884;32;34561;-61
2023/06/16 02:04:22;;;;;;;7.57;3.60;;;;;;;22.25;46.33;99160.31;4345427;32;33864;-61
2023/06/16 02:06:55;;;;;;;8.18;3.12;;;;;;;22.13;46.78;99164.63;4358042;32;35078;-61
2023/06/16 02:09:25;;;;;;;9.07;3.10;;;;;;;22.18;46.78;99162.16;4358056;32;33201;-61
2023/06/16 02:11:54;;;;;;;7.22;3.08;;;;;;;22.13;46.92;99161.91;4344771;32;34776;-61
2023/06/16 02:14:21;;;;;;;6.68;3.97;;;;;;;22.22;46.91;99160.72;4313701;33;33980;-61
2023/06/16 02:16:51;;;;;;;5.22;2.83;;;;;;;22.20;47.03;99154.63;4310779;33;35081;-61
2023/06/16 02:19:19;;;;;;;5.28;2.67;;;;;;;22.15;47.28;99157.06;4311516;33;33307;-61
2023/06/16 02:21:46;;;;;;;5.18;2.97;;;;;;;22.28;47.20;99158.03;4310921;33;34135;-61
2023/06/16 02:24:14;;;;;;;5.53;2.40;;;;;;;22.25;47.34;99154.87;4312843;33;33688;-61
2023/06/16 02:26:42;;;;;;;7.32;3.08;;;;;;;22.19;47.37;99158.41;4311475;33;34855;-61
2023/06/16 02:29:10;;;;;;;6.43;3.22;;;;;;;22.30;46.97;99174.16;4314658;33;34486;-60
2023/06/16 02:31:38;;;;;;;5.18;2.35;;;;;;;22.29;47.00;99164.31;4313712;33;33739;-61
2023/06/16 02:34:06;;;;;;;6.03;3.10;;;;;;;22.33;47.37;99157.38;4313004;33;34068;-60
2023/06/16 02:36:36;;;;;;;13.43;2.80;;;;;;;22.20;47.76;99170.97;4314356;33;35324;-61
2023/06/16 02:39:04;;;;;;;5.87;3.92;;;;;;;22.17;47.69;99161.31;4305743;33;33860;-60
2023/06/16 02:41:32;;;;;;;4.78;2.72;;;;;;;22.19;47.86;99158.41;4314151;33;35702;-60
2023/06/16 02:44:00;;;;;;;4.87;2.53;;;;;;;22.22;47.62;99152.53;4313780;33;33705;-60
2023/06/16 02:46:29;;;;;;;6.45;3.15;;;;;;;22.17;47.76;99160.47;4345036;32;33609;-60
2023/06/16 02:48:56;;;;;;;5.62;3.08;;;;;;;22.22;47.79;99156.09;4359806;32;34469;-60
2023/06/16 02:51:25;;;;;;;6.53;2.95;;;;;;;22.17;47.59;99153.13;4360500;32;33807;-60
2023/06/16 02:53:52;;;;;;;6.87;3.72;;;;;;;22.06;47.32;99157.28;4359832;32;33765;-60
2023/06/16 02:56:20;;;;;;;5.50;3.00;;;;;;;22.03;47.45;99154.94;4359699;32;33482;-60
2023/06/16 02:58:48;;;;;;;5.40;2.70;;;;;;;22.09;46.97;99153.31;4359801;32;33395;-61
2023/06/16 03:01:16;;;;;;;6.15;3.22;;;;;;;22.10;47.11;99154.97;4361053;32;34796;-60
2023/06/16 03:03:48;;;;;;;5.03;3.22;;;;;;;22.06;47.74;99156.44;4358931;32;33953;-60
2023/06/16 03:06:17;;;;;;;7.45;4.07;;;;;;;22.10;47.88;99160.44;4358437;32;33904;-60
2023/06/16 03:08:44;;;;;;;5.70;3.22;;;;;;;22.00;47.95;99160.81;4360484;32;33532;-60
2023/06/16 03:11:12;;;;;;;5.12;2.95;;;;;;;21.98;47.62;99154.69;4357956;32;33897;-60
2023/06/16 03:13:41;;;;;;;7.50;3.62;;;;;;;21.92;48.01;99154.66;4360566;32;35303;-60
2023/06/16 03:16:09;;;;;;;6.00;3.37;;;;;;;21.73;48.62;99156.25;4360174;32;33697;-60
2023/06/16 03:18:37;;;;;;;7.68;2.90;;;;;;;21.73;48.90;99159.81;4358489;32;33102;-60
2023/06/16 03:21:04;;;;;;;5.37;3.30;;;;;;;21.76;48.49;99153.13;4358578;32;35654;-60
2023/06/16 03:23:32;;;;;;;6.45;3.53;;;;;;;21.89;48.34;99155.91;4359527;32;34150;-60
2023/06/16 03:26:00;;;;;;;3.87;2.08;;;;;;;21.91;48.60;99159.28;4361043;32;33902;-60
2023/06/16 03:28:36;;;;;;;6.68;3.35;;;;;;;21.96;48.49;99162.25;4360120;32;33257;-61
2023/06/16 03:31:04;;;;;;;6.05;3.00;;;;;;;22.00;48.46;99160.81;4357538;32;34304;-68
2023/06/16 03:33:33;;;;;;;5.40;2.75;;;;;;;21.89;49.15;99161.34;4360813;32;34286;-61
2023/06/16 03:36:01;;;;;;;6.15;3.05;;;;;;;21.98;48.72;99164.75;4358909;32;33639;-61
2023/06/16 03:38:30;;;;;;;9.25;2.90;;;;;;;22.05;48.34;99155.59;4358802;32;33353;-61
2023/06/16 03:40:58;;;;;;;3.95;2.50;;;;;;;22.07;48.34;99160.81;4360575;32;34052;-61
2023/06/16 03:43:26;;;;;;;3.00;2.17;;;;;;;22.08;48.23;99157.88;4358422;32;34066;-60
2023/06/16 03:45:54;;;;;;;6.37;3.15;;;;;;;22.06;48.11;99165.44;4358861;32;33835;-60
2023/06/16 03:48:22;;;;;;;4.07;2.53;;;;;;;22.03;48.11;99154.94;4359588;32;33133;-61
2023/06/16 03:50:50;;;;;;;6.78;3.40;;;;;;;22.01;48.00;99157.03;4359150;32;33693;-62
2023/06/16 03:53:18;;;;;;;6.18;2.87;;;;;;;22.06;47.70;99160.00;4360801;32;34900;-62
2023/06/16 03:55:47;;;;;;;5.32;2.53;;;;;;;22.03;47.89;99157.66;4360144;32;32451;-61
2023/06/16 03:58:17;;;;;;;6.97;3.08;;;;;;;22.07;48.15;99158.94;4358917;32;33785;-61
2023/06/16 04:00:46;;;;;;;7.03;3.28;;;;;;;22.17;47.73;99155.87;4360185;32;33706;-60
2023/06/16 04:03:15;;;;;;;5.15;2.42;;;;;;;22.12;48.06;99152.03;4360232;32;33974;-60
2023/06/16 04:05:43;;;;;;;5.82;2.83;;;;;;;22.17;48.01;99160.47;4360039;32;33535;-60
2023/06/16 04:08:11;;;;;;;6.20;3.25;;;;;;;22.07;48.31;99158.94;4358653;32;33570;-60
2023/06/16 04:10:39;;;;;;;6.22;3.22;;;;;;;22.10;48.18;99152.25;4359766;32;34720;-62
2023/06/16 04:13:06;;;;;;;5.55;2.92;;;;;;;21.89;48.68;99155.91;4358419;32;34363;-62
2023/06/16 04:15:35;;;;;;;6.37;3.05;;;;;;;21.98;48.45;99157.44;4356663;32;33514;-61
2023/06/16 04:18:03;;;;;;;5.72;2.97;;;;;;;21.92;48.72;99162.84;4360172;32;33150;-61
2023/06/16 04:20:31;;;;;;;4.75;2.90;;;;;;;21.84;48.95;99158.41;4359324;32;33752;-61
2023/06/16 04:23:00;;;;;;;11.68;2.70;;;;;;;21.74;49.24;99163.41;4358154;32;35227;-68
2023/06/16 04:25:29;;;;;;;6.28;3.60;;;;;;;21.78;49.20;99165.50;4359804;32;34001;-63
2023/06/16 04:27:58;;;;;;;7.45;3.47;;;;;;;21.78;49.42;99168.22;4360052;32;34437;-67
2023/06/16 04:30:30;;;;;;;6.28;3.05;;;;;;;21.82;49.58;99163.22;4360571;32;34606;-70
2023/06/16 04:33:02;;;;;;;5.85;3.87;;;;;;;21.91;49.62;99167.47;4359046;32;34787;-68
2023/06/16 04:35:31;;;;;;;6.93;3.40;;;;;;;22.03;49.61;99165.00;4360239;32;34966;-69
2023/06/16 04:38:06;;;;;;;6.78;3.03;;;;;;;22.07;49.60;99167.12;4360330;32;33592;-69
2023/06/16 04:40:36;;;;;;;5.62;3.10;;;;;;;22.08;49.40;99159.78;4360495;32;34385;-69
2023/06/16 04:43:04;;;;;;;6.53;3.33;;;;;;;22.07;49.26;99166.28;4359259;32;34617;-62
2023/06/16 04:45:32;;;;;;;6.20;3.78;;;;;;;22.03;49.16;99156.84;4359640;32;34684;-62
2023/06/16 04:47:59;;;;;;;7.18;3.70;;;;;;;22.13;48.94;99154.56;4360293;32;34634;-62
2023/06/16 04:50:28;;;;;;;6.62;3.58;;;;;;;22.14;49.15;99149.94;4360358;32;35607;-62
2023/06/16 04:52:56;;;;;;;7.50;3.65;;;;;;;22.16;49.22;99147.91;4359939;32;34565;-61
2023/06/16 04:55:24;;;;;;;9.23;3.58;;;;;;;22.28;49.16;99157.19;4359772;32;34780;-61
2023/06/16 04:57:52;;;;;;;4.07;3.28;;;;;;;22.33;49.13;99154.66;4359555;32;33253;-60
2023/06/16 05:00:20;;;;;;;5.62;3.05;;;;;;;22.41;49.41;99153.66;4355934;32;33815;-61
2023/06/16 05:02:48;;;;;;;10.35;3.37;;;;;;;22.43;49.20;99155.09;4359245;32;35139;-60
2023/06/16 05:05:16;;;;;;;8.10;3.58;;;;;;;22.46;49.32;99159.31;4359325;32;34110;-60
2023/06/16 05:07:43;;;;;;;9.73;3.28;;;;;;;22.28;49.81;99160.75;4356637;32;32859;-61
2023/06/16 05:10:11;;;;;;;3.95;2.55;;;;;;;22.53;49.32;99166.44;4359758;32;34827;-61
2023/06/16 05:12:39;;;;;;;6.87;2.70;;;;;;;22.63;49.25;99157.03;4356282;32;33710;-61
2023/06/16 05:15:07;;;;;;;11.18;3.50;;;;;;;22.73;49.20;99161.06;4359432;32;33515;-60
2023/06/16 05:17:37;;;;;;;6.20;3.75;;;;;;;22.81;49.00;99161.91;4356395;32;33651;-60
2023/06/16 05:20:06;;;;;;;5.32;3.08;;;;;;;22.86;48.94;99162.97;4360097;32;33762;-60
2023/06/16 05:22:34;;;;;;;7.80;3.33;;;;;;;22.76;49.70;99160.66;4358272;32;34899;-60
2023/06/16 05:25:02;;;;;;;5.80;2.50;;;;;;;22.86;48.98;99168.44;4359911;32;33898;-60
2023/06/16 05:27:30;;;;;;;6.05;2.60;;;;;;;22.78;48.74;99160.44;4358661;32;32776;-61
2023/06/16 05:29:57;;;;;;;7.97;3.53;;;;;;;22.87;48.32;99167.38;4360789;32;35059;-61
2023/06/16 05:32:28;;;;;;;5.03;3.00;;;;;;;22.99;48.06;99163.00;4359622;32;34839;-61
2023/06/16 05:34:56;;;;;;;5.72;2.87;;;;;;;23.10;47.98;99166.16;4359535;32;35254;-61
2023/06/16 05:37:24;;;;;;;9.25;2.67;;;;;;;23.12;48.08;99167.63;4359113;32;33617;-61
2023/06/16 05:39:51;;;;;;;7.60;2.80;;;;;;;23.13;47.61;99172.03;4356561;32;34698;-61
2023/06/16 05:42:19;;;;;;;7.53;3.70;;;;;;;23.02;47.73;99175.41;4357440;32;33906;-61
2023/06/16 05:44:47;;;;;;;11.12;4.37;;;;;;;22.68;48.79;99170.91;4359232;32;34657;-60
2023/06/16 05:47:15;;;;;;;5.53;3.28;;;;;;;22.86;48.36;99173.88;4358568;32;33267;-61
2023/06/16 05:49:43;;;;;;;7.22;3.42;;;;;;;22.94;48.57;99175.59;4358888;32;34901;-61
2023/06/16 05:52:11;;;;;;;8.50;3.83;;;;;;;23.00;48.62;99169.31;4351347;32;204275;-60
2023/06/16 05:54:38;;;;;;;6.65;3.47;;;;;;;23.02;48.32;99172.66;4358138;32;33971;-63
2023/06/16 05:57:07;;;;;;;10.10;4.32;;;;;;;23.00;48.73;99174.75;4358860;32;35712;-63
2023/06/16 05:59:36;;;;;;;9.30;3.80;;;;;;;22.70;49.58;99175.12;4359328;32;33963;-62
2023/06/16 06:02:04;;;;;;;6.78;3.58;;;;;;;22.30;49.37;99174.16;4358261;32;33981;-63
2023/06/16 06:04:33;;;;;;;9.35;4.45;;;;;;;21.85;49.73;99182.72;4356717;32;34679;-69
2023/06/16 06:07:01;;;;;;;7.28;3.62;;;;;;;22.42;48.97;99174.41;4360457;32;33842;-67
2023/06/16 06:09:29;;;;;;;6.65;4.15;;;;;;;22.54;48.85;99181.78;4358442;32;33914;-67
2023/06/16 06:11:57;;;;;;;9.55;4.45;;;;;;;22.07;50.38;99188.91;4345331;32;33840;-62
2023/06/16 06:14:24;;;;;;;6.00;3.80;;;;;;;22.43;48.84;99176.09;4356789;32;34872;-62
2023/06/16 06:16:52;;;;;;;10.82;4.25;;;;;;;22.01;49.75;99183.44;4358236;32;33173;-61
2023/06/16 06:19:22;;;;;;;7.35;4.12;;;;;;;21.89;50.14;99177.72;4351455;32;36616;-61
2023/06/16 06:21:50;;;;;;;8.38;3.08;;;;;;;22.46;48.80;99178.41;4357686;32;34951;-61
2023/06/16 06:24:18;;;;;;;7.45;3.53;;;;;;;22.67;48.56;99180.16;4357353;32;33768;-61
2023/06/16 06:26:46;;;;;;;7.35;3.67;;;;;;;22.75;48.54;99175.31;4358837;32;33502;-61
2023/06/16 06:29:15;;;;;;;5.32;3.22;;;;;;;22.79;48.45;99178.47;4358515;32;34646;-61
2023/06/16 06:31:42;;;;;;;7.05;3.58;;;;;;;22.66;48.31;99178.44;4354816;32;33841;-61
2023/06/16 06:34:10;;;;;;;5.20;3.22;;;;;;;22.68;49.11;99181.81;4350879;32;33421;-61
2023/06/16 06:36:39;;;;;;;6.93;3.53;;;;;;;23.00;48.25;99189.25;4358147;32;33099;-61
2023/06/16 06:39:08;;;;;;;5.25;3.08;;;;;;;23.21;48.40;99181.88;4357979;32;33398;-61
2023/06/16 06:41:36;;;;;;;8.45;4.07;;;;;;;23.32;48.85;99194.09;4356387;32;33805;-61
2023/06/16 06:44:05;;;;;;;7.50;3.83;;;;;;;23.36;48.79;99190.72;4357367;32;33753;-62
2023/06/16 06:46:35;;;;;;;7.55;3.72;;;;;;;23.16;48.47;99201.63;4347948;32;34814;-61
2023/06/16 06:49:03;;;;;;;6.25;3.55;;;;;;;23.20;48.51;99202.06;4355917;32;33731;-61
2023/06/16 06:51:31;;;;;;;7.28;3.83;;;;;;;22.69;49.54;99203.41;4357675;32;34164;-62
2023/06/16 06:53:59;;;;;;;6.50;3.42;;;;;;;23.14;48.38;99202.91;4355367;32;33637;-62
2023/06/16 06:56:26;;;;;;;15.07;4.53;;;;;;;23.20;48.11;99211.09;4356552;32;33136;-62
2023/06/16 06:58:54;;;;;;;7.35;3.30;;;;;;;23.24;47.76;99203.31;4348992;32;33726;-61
2023/06/16 07:01:22;;;;;;;9.27;3.83;;;;;;;22.90;48.70;99207.87;4350889;32;33900;-61
2023/06/16 07:03:49;;;;;;;10.45;5.03;;;;;;;22.74;49.19;99202.81;4349710;32;34279;-62
2023/06/16 07:06:17;;;;;;;7.78;4.05;;;;;;;22.36;50.39;99202.50;4355131;32;33276;-62
2023/06/16 07:08:45;;;;;;;9.07;3.85;;;;;;;22.19;51.06;99212.91;4354480;32;33640;-62
2023/06/16 07:11:13;;;;;;;7.15;4.10;;;;;;;22.01;50.67;99207.97;4353738;32;33966;-61
2023/06/16 07:13:40;;;;;;;8.80;3.90;;;;;;;22.42;50.59;99207.97;4355953;32;33868;-61
2023/06/16 07:16:07;;;;;;;10.05;4.28;;;;;;;22.43;50.40;99211.53;4357049;32;33486;-61
2023/06/16 07:18:36;;;;;;;8.88;4.68;;;;;;;22.13;50.97;99213.69;4357054;32;33921;-61
2023/06/16 07:21:04;;;;;;;9.15;4.07;;;;;;;22.23;51.01;99206.00;4355952;32;33826;-61
2023/06/16 07:23:32;;;;;;;8.25;3.92;;;;;;;22.55;50.28;99210.72;4357444;32;33831;-61
2023/06/16 07:25:59;;;;;;;10.82;4.43;;;;;;;22.49;51.13;99213.44;4354813;32;33884;-61
2023/06/16 07:28:27;;;;;;;7.20;4.43;;;;;;;22.70;50.36;99215.19;4359022;32;34904;-61
2023/06/16 07:30:55;;;;;;;7.85;4.82;;;;;;;22.45;51.23;99223.91;4357642;32;34057;-61
2023/06/16 07:33:23;;;;;;;8.02;4.45;;;;;;;22.60;51.24;99221.03;4358398;32;34814;-61
2023/06/16 07:35:50;;;;;;;12.60;4.40;;;;;;;22.76;50.64;99225.25;4358341;32;33453;-61
2023/06/16 07:38:18;;;;;;;8.43;5.40;;;;;;;22.87;49.90;99219.22;4358906;32;33757;-61
2023/06/16 07:40:45;;;;;;;6.55;3.67;;;;;;;22.92;49.77;99215.84;4357791;32;34029;-61
2023/06/16 07:43:13;;;;;;;11.73;5.20;;;;;;;22.60;50.28;99214.72;4357639;32;33450;-61
2023/06/16 07:45:40;;;;;;;7.35;4.32;;;;;;;22.21;50.84;99218.97;4357518;32;32771;-61
2023/06/16 07:48:09;;;;;;;11.15;5.28;;;;;;;22.13;52.07;99217.25;4354321;32;33323;-60
2023/06/16 07:50:37;;;;;;;9.32;5.60;;;;;;;22.36;51.46;99221.56;4356077;32;33884;-60
2023/06/16 07:53:04;;;;;;;9.80;5.03;;;;;;;22.44;51.68;99219.53;4355361;32;33160;-61
2023/06/16 07:55:33;;;;;;;11.02;4.65;;;;;;;22.73;51.50;99222.97;4358047;32;34245;-60
2023/06/16 07:58:00;;;;;;;7.62;4.68;;;;;;;22.84;51.25;99218.78;4358917;32;34693;-60
2023/06/16 08:00:28;;;;;;;10.88;4.78;;;;;;;22.71;51.52;99219.59;4359343;32;33764;-60
2023/06/16 08:02:56;;;;;;;8.82;5.65;;;;;;;23.22;50.29;99221.81;4357597;32;33863;-61
2023/06/16 08:05:23;;;;;;;16.08;5.53;;;;;;;23.36;49.76;99212.56;4357033;32;33749;-61
2023/06/16 08:07:51;;;;;;;7.75;4.75;;;;;;;23.73;48.80;99212.16;4352196;32;33929;-61
2023/06/16 08:10:20;;;;;;;6.22;4.37;;;;;;;23.74;47.99;99208.34;4356258;32;35172;-60
2023/06/16 08:12:51;;;;;;;10.07;4.85;;;;;;;23.80;48.57;99205.63;4357243;32;34447;-61
2023/06/16 08:15:20;;;;;;;8.60;4.93;;;;;;;23.85;47.36;99207.69;4357878;32;32989;-60
2023/06/16 08:17:48;;;;;;;7.75;3.95;;;;;;;24.33;46.66;99207.31;4359360;32;33786;-62
2023/06/16 08:20:15;;;;;;;6.60;3.75;;;;;;;24.29;47.80;99204.19;4357663;32;33693;-61
2023/06/16 08:22:43;;;;;;;7.47;4.18;;;;;;;24.06;47.34;99209.34;4358064;32;33670;-61
2023/06/16 08:25:12;;;;;;;8.77;4.28;;;;;;;24.30;46.92;99208.63;4357972;32;33928;-61
2023/06/16 08:27:40;;;;;;;15.02;4.05;;;;;;;24.60;46.33;99203.44;4358546;32;33418;-61
2023/06/16 08:30:09;;;;;;;7.97;3.58;;;;;;;24.56;45.37;99202.22;4359850;32;33701;-61
2023/06/16 08:32:36;;;;;;;16.92;4.60;;;;;;;24.57;45.84;99201.16;4360199;32;33934;-60
2023/06/16 08:35:08;;;;;;;7.45;3.65;;;;;;;24.41;43.93;99198.91;4358819;32;34268;-61
2023/06/16 08:37:36;;;;;;;6.28;3.72;;;;;;;24.98;42.86;99212.72;4354262;32;33937;-61
2023/06/16 08:40:10;;;;;;;6.07;3.28;;;;;;;24.59;44.32;99207.25;4354043;32;32899;-61
2023/06/16 08:42:38;;;;;;;8.30;3.95;;;;;;;24.77;43.51;99202.94;4357543;32;34058;-61
2023/06/16 08:45:07;;;;;;;6.90;3.87;;;;;;;25.05;43.57;99202.53;4357865;32;33394;-61
2023/06/16 08:47:37;;;;;;;5.85;3.60;;;;;;;25.30;44.87;99197.12;4355942;32;33795;-61
2023/06/16 08:50:07;;;;;;;13.05;3.83;;;;;;;25.64;42.65;99197.62;4352407;32;33825;-61
2023/06/16 08:52:40;;;;;;;5.65;3.67;;;;;;;25.29;43.84;99195.41;4356584;32;35296;-61
2023/06/16 08:55:13;;;;;;;13.27;4.12;;;;;;;25.71;43.00;99206.63;4354968;32;33495;-61
2023/06/16 08:57:50;;;;;;;7.18;4.43;;;;;;;25.77;44.30;99200.25;4357758;32;33572;-61
2023/06/16 09:00:18;;;;;;;8.05;4.25;;;;;;;25.68;44.02;99199.72;4355467;32;35080;-61
2023/06/16 09:02:53;;;;;;;10.73;4.80;;;;;;;25.54;44.54;99199.00;4356015;32;33692;-61
2023/06/16 09:05:24;;;;;;;7.62;4.37;;;;;;;25.29;44.45;99196.25;4354269;32;33160;-61
2023/06/16 09:07:52;;;;;;;7.75;3.92;;;;;;;25.17;44.08;99199.94;4356364;32;34511;-61
2023/06/16 09:10:19;;;;;;;8.40;3.85;;;;;;;25.36;43.83;99200.84;4358367;32;33782;-61
2023/06/16 09:12:52;;;;;;;17.33;4.32;;;;;;;25.02;44.11;99198.34;4357841;32;33600;-61
2023/06/16 09:15:21;;;;;;;5.62;3.78;;;;;;;25.24;43.21;99193.37;4354087;32;33462;-61
2023/06/16 09:17:50;;;;;;;9.93;4.50;;;;;;;25.14;43.52;99187.56;4355614;32;33545;-61
2023/06/16 09:20:19;;;;;;;7.35;4.28;;;;;;;25.07;44.26;99187.56;4355703;32;35223;-61
2023/06/16 10:47:09;;;;;;;6.25;4.32;;;;;;;25.76;42.52;99168.44;4334905;33;35672;-59
2023/06/16 10:49:59;;;;;;;7.25;4.40;;;;;;;25.81;41.87;99176.00;4331023;33;34222;-59
2023/06/16 10:52:44;;;;;;;6.22;3.95;;;;;;;25.05;43.30;99167.78;4332630;33;33981;-59
2023/06/16 10:55:22;;;;;;;8.45;5.53;;;;;;;24.96;43.11;99165.53;4331909;33;33301;-60
2023/06/16 10:58:15;;;;;;;7.95;3.90;;;;;;;25.10;43.70;99158.88;4316988;33;33577;-60
2023/06/16 11:00:44;;;;;;;6.75;4.00;;;;;;;25.65;43.06;99160.94;4330914;33;33768;-59
2023/06/16 11:03:12;;;;;;;7.10;4.43;;;;;;;25.52;42.35;99159.16;4321966;33;33791;-60
2023/06/16 11:05:40;;;;;;;6.65;4.15;;;;;;;25.38;41.52;99158.47;4331929;33;33248;-60
2023/06/16 11:08:13;;;;;;;7.55;3.95;;;;;;;26.06;40.94;99157.56;4330911;33;33713;-60
2023/06/16 11:10:52;;;;;;;7.25;4.28;;;;;;;26.37;41.04;99169.41;4331874;33;33677;-60
2023/06/16 11:13:25;;;;;;;8.52;4.22;;;;;;;26.07;40.71;99161.13;4331197;33;33535;-60
2023/06/16 11:15:56;;;;;;;5.15;3.20;;;;;;;26.67;39.92;99163.97;4330209;33;32173;-60
2023/06/16 11:18:25;;;;;;;6.93;3.97;;;;;;;26.60;38.67;99161.31;4327795;33;34702;-60
2023/06/16 11:21:11;;;;;;;7.18;4.00;;;;;;;26.84;37.42;99164.16;4331485;33;34933;-60
2023/06/16 11:23:43;;;;;;;5.95;3.97;;;;;;;27.15;36.37;99154.78;4330264;33;34661;-59
2023/06/16 11:26:17;;;;;;;7.40;4.22;;;;;;;27.56;35.71;99156.59;4330782;33;33076;-60
2023/06/16 11:28:47;;;;;;;6.12;3.70;;;;;;;27.79;36.53;99139.28;4330720;33;33958;-60
2023/06/16 11:31:15;;;;;;;11.85;3.42;;;;;;;27.34;36.25;99150.88;4330568;33;33652;-60
2023/06/16 11:33:43;;;;;;;7.87;4.40;;;;;;;27.33;36.00;99151.94;4310904;33;33596;-59
2023/06/16 11:36:19;;;;;;;6.87;4.18;;;;;;;27.42;34.59;99141.44;4311722;33;32259;-60
2023/06/16 11:38:50;;;;;;;6.10;3.17;;;;;;;27.79;35.27;99132.94;4307270;33;33747;-60
2023/06/16 11:41:36;;;;;;;7.50;4.20;;;;;;;27.62;35.90;99135.56;4314435;33;34629;-60
2023/06/16 11:44:12;;;;;;;8.20;4.18;;;;;;;27.99;35.42;99133.38;4312896;33;34984;-59
2023/06/16 11:46:39;;;;;;;7.85;4.93;;;;;;;27.29;36.15;99130.69;4315539;33;33204;-60
2023/06/16 11:49:07;;;;;;;7.12;4.82;;;;;;;28.05;35.00;99123.31;4300252;33;33308;-59
2023/06/16 11:51:35;;;;;;;8.13;5.45;;;;;;;27.99;34.89;99116.87;4313044;33;35967;-60
2023/06/16 11:54:03;;;;;;;8.05;4.72;;;;;;;27.90;35.45;99109.25;4313984;33;33481;-60
2023/06/16 11:56:31;;;;;;;8.30;4.72;;;;;;;27.94;35.97;99114.03;4307913;33;32828;-60
2023/06/16 11:59:02;;;;;;;6.18;4.28;;;;;;;27.62;36.78;99108.09;4312845;33;34513;-60
2023/06/16 12:01:30;;;;;;;9.02;4.68;;;;;;;27.79;36.33;99102.72;4300565;33;33582;-60
2023/06/16 12:03:58;;;;;;;6.60;5.05;;;;;;;27.40;37.63;99102.37;4314371;33;34026;-61
2023/06/16 12:06:34;;;;;;;8.43;4.60;;;;;;;27.02;38.64;99100.88;4313990;33;32144;-60
2023/06/16 12:09:04;;;;;;;9.80;5.60;;;;;;;27.13;37.27;99097.38;4303101;33;33850;-60
2023/06/16 12:11:33;;;;;;;6.97;4.70;;;;;;;27.05;36.98;99103.16;4309953;33;34174;-60
2023/06/16 12:14:01;;;;;;;7.80;4.82;;;;;;;27.48;37.04;99096.53;4314120;33;34480;-61
2023/06/16 12:16:30;;;;;;;6.22;4.28;;;;;;;27.62;36.13;99094.34;4309841;33;32941;-61
2023/06/16 12:18:59;;;;;;;8.43;5.78;;;;;;;27.34;37.38;99097.84;4306772;33;33598;-60
2023/06/16 12:21:27;;;;;;;9.98;6.32;;;;;;;27.85;35.84;99090.75;4312809;33;33628;-60
2023/06/16 12:24:00;;;;;;;8.93;4.57;;;;;;;27.24;36.45;99092.94;4313973;33;34395;-60
2023/06/16 12:26:41;;;;;;;10.43;5.03;;;;;;;27.20;36.17;99089.00;4312113;33;34091;-60
2023/06/16 12:29:13;;;;;;;7.65;4.43;;;;;;;26.62;36.50;99087.00;4312238;33;34180;-60
2023/06/16 12:32:00;;;;;;;8.20;4.97;;;;;;;26.48;37.21;99089.06;4313532;33;35197;-61
2023/06/16 12:34:30;;;;;;;12.48;4.68;;;;;;;26.20;37.64;99085.03;4313921;33;34120;-60
2023/06/16 12:37:03;;;;;;;7.75;5.07;;;;;;;26.31;39.08;99088.88;4315036;33;33320;-61
2023/06/16 12:39:31;;;;;;;7.85;5.82;;;;;;;27.11;37.64;99080.25;4329601;33;32222;-60
2023/06/16 12:42:02;;;;;;;7.47;5.10;;;;;;;27.27;37.89;99086.97;4328460;33;33952;-61
2023/06/16 12:44:46;;;;;;;7.75;5.57;;;;;;;27.37;37.78;99078.94;4329883;33;35277;-60
2023/06/16 12:47:19;;;;;;;7.00;4.70;;;;;;;27.27;37.15;99080.63;4327633;33;33432;-60
2023/06/16 12:49:47;;;;;;;13.95;4.82;;;;;;;26.91;36.36;99088.00;4329093;33;35264;-60
2023/06/16 12:52:15;;;;;;;9.55;5.22;;;;;;;27.42;34.86;99078.25;4330880;33;33766;-61
2023/06/16 12:54:43;;;;;;;7.90;5.62;;;;;;;27.01;36.83;99084.66;4331784;33;33433;-60
2023/06/16 12:57:11;;;;;;;7.22;5.60;;;;;;;27.45;38.10;99082.41;4325589;33;34285;-60
2023/06/16 12:59:41;;;;;;;8.45;5.40;;;;;;;26.73;39.80;99085.34;4332623;33;34520;-60
2023/06/16 13:02:09;;;;;;;7.55;4.57;;;;;;;26.64;40.12;99079.34;4328208;33;35001;-60
2023/06/16 13:04:37;;;;;;;7.60;5.55;;;;;;;27.42;39.48;99072.75;4326773;33;34324;-60
2023/06/16 13:07:06;;;;;;;8.98;5.60;;;;;;;27.70;38.68;99073.88;4321759;33;33090;-60